Terminal Aerodrome Forecast
Issued by NWS Louisville, KY

Home | Current Version | Previous Version | Text Only | Print | Product List | Glossary On
Versions: 1 2 3 4 5 6 7 8 9 10 11 12 13 14 15 16 17 18 19
448
FTUS43 KLMK 241429 AAA
TAFLEX
TAF AMD
KLEX 241429Z 2414/2512 04007KT 4SM -SHRA BR SCT004 BKN012
      TEMPO 2414/2418 2SM -SHRA BR BKN004
     FM241800 20009KT 5SM -SHRA VCTS OVC012CB
      TEMPO 2420/2424 2SM -TSRA BR BKN008CB
     FM250000 16012G17KT 5SM -SHRA VCTS OVC025CB WS020/20040KT
     FM250300 19012G24KT 5SM SHRA VCTS OVC030CB WS020/20060KT
     FM251000 25020G27KT 6SM -SHRA BR OVC025=

USA.gov is the U.S. government's official web portal to all federal, state and local government web resources and services.